sensor_id;sensor_type;location;lat;lon;timestamp;temperature;humidity
55777;DHT22;54079;44.540;18.784;2023-04-19T00:00:51;12.80;99.90
55777;DHT22;54079;44.540;18.784;2023-04-19T00:03:16;12.80;99.90
55777;DHT22;54079;44.540;18.784;2023-04-19T00:05:42;12.90;99.90
55777;DHT22;54079;44.540;18.784;2023-04-19T00:08:08;13.00;99.90
55777;DHT22;54079;44.540;18.784;2023-04-19T00:10:34;13.10;99.90
55777;DHT22;54079;44.540;18.784;2023-04-19T00:13:01;13.10;99.90
55777;DHT22;54079;44.540;18.784;2023-04-19T00:15:27;13.00;99.90
55777;DHT22;54079;44.540;18.784;2023-04-19T00:17:53;13.00;99.90
55777;DHT22;54079;44.540;18.784;2023-04-19T00:20:20;13.00;99.90
55777;DHT22;54079;44.540;18.784;2023-04-19T00:22:46;13.20;99.90
55777;DHT22;54079;44.540;18.784;2023-04-19T00:25:12;13.20;99.90
55777;DHT22;54079;44.540;18.784;2023-04-19T00:27:38;13.20;99.90
55777;DHT22;54079;44.540;18.784;2023-04-19T00:30:04;13.30;99.90
55777;DHT22;54079;44.540;18.784;2023-04-19T00:32:30;13.40;99.90
55777;DHT22;54079;44.540;18.784;2023-04-19T00:34:56;13.30;99.90
55777;DHT22;54079;44.540;18.784;2023-04-19T00:37:22;13.30;99.90
55777;DHT22;54079;44.540;18.784;2023-04-19T00:39:48;13.50;99.90
55777;DHT22;54079;44.540;18.784;2023-04-19T00:42:14;13.60;99.50
55777;DHT22;54079;44.540;18.784;2023-04-19T00:44:41;13.60;98.50
55777;DHT22;54079;44.540;18.784;2023-04-19T00:47:07;13.60;98.70
55777;DHT22;54079;44.540;18.784;2023-04-19T00:49:33;13.50;99.50
55777;DHT22;54079;44.540;18.784;2023-04-19T00:51:59;13.50;99.60
55777;DHT22;54079;44.540;18.784;2023-04-19T00:54:25;13.50;99.60
55777;DHT22;54079;44.540;18.784;2023-04-19T00:56:52;13.40;99.90
55777;DHT22;54079;44.540;18.784;2023-04-19T00:59:18;13.50;99.90
55777;DHT22;54079;44.540;18.784;2023-04-19T01:01:44;13.50;99.90
55777;DHT22;54079;44.540;18.784;2023-04-19T01:04:10;13.60;99.90
55777;DHT22;54079;44.540;18.784;2023-04-19T01:06:37;13.60;99.80
55777;DHT22;54079;44.540;18.784;2023-04-19T01:09:04;13.70;99.30
55777;DHT22;54079;44.540;18.784;2023-04-19T01:11:30;13.80;98.90
55777;DHT22;54079;44.540;18.784;2023-04-19T01:13:57;13.90;98.10
55777;DHT22;54079;44.540;18.784;2023-04-19T01:16:27;13.80;98.00
55777;DHT22;54079;44.540;18.784;2023-04-19T01:18:53;13.90;97.60
55777;DHT22;54079;44.540;18.784;2023-04-19T01:21:19;13.70;98.00
55777;DHT22;54079;44.540;18.784;2023-04-19T01:23:47;13.60;98.60
55777;DHT22;54079;44.540;18.784;2023-04-19T01:26:13;13.70;98.60
55777;DHT22;54079;44.540;18.784;2023-04-19T01:28:38;13.70;98.70
55777;DHT22;54079;44.540;18.784;2023-04-19T01:31:04;13.50;99.10
55777;DHT22;54079;44.540;18.784;2023-04-19T01:33:31;13.40;99.80
55777;DHT22;54079;44.540;18.784;2023-04-19T01:35:57;13.40;99.90
55777;DHT22;54079;44.540;18.784;2023-04-19T01:38:23;13.60;99.90
55777;DHT22;54079;44.540;18.784;2023-04-19T01:40:49;13.80;99.30
55777;DHT22;54079;44.540;18.784;2023-04-19T01:43:16;13.90;98.60
55777;DHT22;54079;44.540;18.784;2023-04-19T01:45:42;13.90;97.40
55777;DHT22;54079;44.540;18.784;2023-04-19T01:48:08;13.70;97.80
55777;DHT22;54079;44.540;18.784;2023-04-19T01:50:34;13.80;98.10
55777;DHT22;54079;44.540;18.784;2023-04-19T01:53:00;13.90;97.60
55777;DHT22;54079;44.540;18.784;2023-04-19T01:55:26;14.00;97.00
55777;DHT22;54079;44.540;18.784;2023-04-19T01:57:52;14.00;96.70
55777;DHT22;54079;44.540;18.784;2023-04-19T02:00:19;14.00;96.80
55777;DHT22;54079;44.540;18.784;2023-04-19T02:02:45;13.90;96.70
55777;DHT22;54079;44.540;18.784;2023-04-19T02:05:11;13.80;97.00
55777;DHT22;54079;44.540;18.784;2023-04-19T02:07:37;13.60;97.70
55777;DHT22;54079;44.540;18.784;2023-04-19T02:10:04;13.70;98.10
55777;DHT22;54079;44.540;18.784;2023-04-19T02:12:32;13.70;97.90
55777;DHT22;54079;44.540;18.784;2023-04-19T02:14:59;13.70;98.20
55777;DHT22;54079;44.540;18.784;2023-04-19T02:17:27;13.80;98.20
55777;DHT22;54079;44.540;18.784;2023-04-19T02:19:53;13.70;97.70
55777;DHT22;54079;44.540;18.784;2023-04-19T02:22:19;13.70;98.10
55777;DHT22;54079;44.540;18.784;2023-04-19T02:24:46;13.70;98.00
55777;DHT22;54079;44.540;18.784;2023-04-19T02:27:13;13.60;98.60
55777;DHT22;54079;44.540;18.784;2023-04-19T02:29:39;13.60;98.90
55777;DHT22;54079;44.540;18.784;2023-04-19T02:32:05;13.80;98.80
55777;DHT22;54079;44.540;18.784;2023-04-19T02:34:34;13.70;98.60
55777;DHT22;54079;44.540;18.784;2023-04-19T02:37:01;13.70;98.70
55777;DHT22;54079;44.540;18.784;2023-04-19T02:39:28;13.70;98.90
55777;DHT22;54079;44.540;18.784;2023-04-19T02:41:55;13.80;98.80
55777;DHT22;54079;44.540;18.784;2023-04-19T02:44:21;13.90;97.80
55777;DHT22;54079;44.540;18.784;2023-04-19T02:46:53;13.90;97.50
55777;DHT22;54079;44.540;18.784;2023-04-19T02:49:20;13.90;97.40
55777;DHT22;54079;44.540;18.784;2023-04-19T02:51:46;13.90;97.00
55777;DHT22;54079;44.540;18.784;2023-04-19T02:54:13;13.90;97.10
55777;DHT22;54079;44.540;18.784;2023-04-19T02:56:39;13.80;96.90
55777;DHT22;54079;44.540;18.784;2023-04-19T02:59:05;13.80;96.90
55777;DHT22;54079;44.540;18.784;2023-04-19T03:01:31;13.80;96.80
55777;DHT22;54079;44.540;18.784;2023-04-19T03:03:57;13.80;97.20
55777;DHT22;54079;44.540;18.784;2023-04-19T03:06:24;13.90;97.20
55777;DHT22;54079;44.540;18.784;2023-04-19T03:08:50;14.00;97.00
55777;DHT22;54079;44.540;18.784;2023-04-19T03:11:17;14.00;96.90
55777;DHT22;54079;44.540;18.784;2023-04-19T03:13:43;14.00;96.70
55777;DHT22;54079;44.540;18.784;2023-04-19T03:16:09;14.00;96.60
55777;DHT22;54079;44.540;18.784;2023-04-19T03:18:35;14.00;96.50
55777;DHT22;54079;44.540;18.784;2023-04-19T03:21:02;13.90;96.70
55777;DHT22;54079;44.540;18.784;2023-04-19T03:23:28;13.90;96.60
55777;DHT22;54079;44.540;18.784;2023-04-19T03:25:54;13.80;96.80
55777;DHT22;54079;44.540;18.784;2023-04-19T03:28:21;13.80;97.00
55777;DHT22;54079;44.540;18.784;2023-04-19T03:30:47;13.80;96.90
55777;DHT22;54079;44.540;18.784;2023-04-19T03:33:13;13.90;97.30
55777;DHT22;54079;44.540;18.784;2023-04-19T03:35:39;14.00;96.90
55777;DHT22;54079;44.540;18.784;2023-04-19T03:38:05;14.00;96.80
55777;DHT22;54079;44.540;18.784;2023-04-19T03:40:36;14.00;96.90
55777;DHT22;54079;44.540;18.784;2023-04-19T03:43:02;13.90;97.00
55777;DHT22;54079;44.540;18.784;2023-04-19T03:45:29;13.90;97.10
55777;DHT22;54079;44.540;18.784;2023-04-19T03:47:55;13.70;97.60
55777;DHT22;54079;44.540;18.784;2023-04-19T03:50:21;13.50;98.20
55777;DHT22;54079;44.540;18.784;2023-04-19T03:52:47;13.70;98.40
55777;DHT22;54079;44.540;18.784;2023-04-19T03:55:13;13.90;97.70
55777;DHT22;54079;44.540;18.784;2023-04-19T03:57:39;13.80;97.10
55777;DHT22;54079;44.540;18.784;2023-04-19T04:00:05;13.70;97.60
55777;DHT22;54079;44.540;18.784;2023-04-19T04:02:32;13.70;97.90
55777;DHT22;54079;44.540;18.784;2023-04-19T04:04:58;13.70;98.10
55777;DHT22;54079;44.540;18.784;2023-04-19T04:07:24;13.90;98.10
55777;DHT22;54079;44.540;18.784;2023-04-19T04:09:50;13.90;97.10
55777;DHT22;54079;44.540;18.784;2023-04-19T04:12:16;14.00;97.00
55777;DHT22;54079;44.540;18.784;2023-04-19T04:14:42;13.90;96.90
55777;DHT22;54079;44.540;18.784;2023-04-19T04:17:08;13.90;96.90
55777;DHT22;54079;44.540;18.784;2023-04-19T04:19:34;13.80;97.10
55777;DHT22;54079;44.540;18.784;2023-04-19T04:22:00;13.70;97.30
55777;DHT22;54079;44.540;18.784;2023-04-19T04:24:26;13.60;97.90
55777;DHT22;54079;44.540;18.784;2023-04-19T04:26:52;13.50;98.40
55777;DHT22;54079;44.540;18.784;2023-04-19T04:29:19;13.40;98.90
55777;DHT22;54079;44.540;18.784;2023-04-19T04:31:45;13.40;99.60
55777;DHT22;54079;44.540;18.784;2023-04-19T04:34:11;13.50;99.10
55777;DHT22;54079;44.540;18.784;2023-04-19T04:36:36;13.50;98.80
55777;DHT22;54079;44.540;18.784;2023-04-19T04:39:03;13.50;99.30
55777;DHT22;54079;44.540;18.784;2023-04-19T04:41:30;13.40;99.70
55777;DHT22;54079;44.540;18.784;2023-04-19T04:43:59;13.40;99.90
55777;DHT22;54079;44.540;18.784;2023-04-19T04:46:26;13.40;99.30
55777;DHT22;54079;44.540;18.784;2023-04-19T04:48:52;13.40;99.70
55777;DHT22;54079;44.540;18.784;2023-04-19T04:51:18;13.50;99.40
55777;DHT22;54079;44.540;18.784;2023-04-19T04:53:44;13.50;98.50
55777;DHT22;54079;44.540;18.784;2023-04-19T04:56:10;13.60;99.00
55777;DHT22;54079;44.540;18.784;2023-04-19T04:58:36;13.60;98.60
55777;DHT22;54079;44.540;18.784;2023-04-19T05:01:02;13.60;99.00
55777;DHT22;54079;44.540;18.784;2023-04-19T05:03:28;13.60;98.60
55777;DHT22;54079;44.540;18.784;2023-04-19T05:05:54;13.60;98.70
55777;DHT22;54079;44.540;18.784;2023-04-19T05:08:21;13.60;99.20
55777;DHT22;54079;44.540;18.784;2023-04-19T05:10:46;13.70;98.50
55777;DHT22;54079;44.540;18.784;2023-04-19T05:13:12;13.70;98.70
55777;DHT22;54079;44.540;18.784;2023-04-19T05:15:38;13.60;99.10
55777;DHT22;54079;44.540;18.784;2023-04-19T05:18:05;13.80;98.10
55777;DHT22;54079;44.540;18.784;2023-04-19T05:20:31;13.80;97.50
55777;DHT22;54079;44.540;18.784;2023-04-19T05:22:59;13.90;97.50
55777;DHT22;54079;44.540;18.784;2023-04-19T05:25:26;14.00;97.00
55777;DHT22;54079;44.540;18.784;2023-04-19T05:27:52;14.10;96.80
55777;DHT22;54079;44.540;18.784;2023-04-19T05:30:18;14.10;96.50
55777;DHT22;54079;44.540;18.784;2023-04-19T05:32:43;14.00;96.50
55777;DHT22;54079;44.540;18.784;2023-04-19T05:35:10;14.00;96.70
55777;DHT22;54079;44.540;18.784;2023-04-19T05:37:37;13.80;96.70
55777;DHT22;54079;44.540;18.784;2023-04-19T05:40:04;13.80;96.50
55777;DHT22;54079;44.540;18.784;2023-04-19T05:42:30;14.00;96.20
55777;DHT22;54079;44.540;18.784;2023-04-19T05:44:56;14.00;95.80
55777;DHT22;54079;44.540;18.784;2023-04-19T05:47:22;14.10;96.20
55777;DHT22;54079;44.540;18.784;2023-04-19T05:49:48;14.20;95.50
55777;DHT22;54079;44.540;18.784;2023-04-19T05:52:14;14.30;95.30
55777;DHT22;54079;44.540;18.784;2023-04-19T05:54:40;14.30;95.10
55777;DHT22;54079;44.540;18.784;2023-04-19T05:57:06;14.40;94.80
55777;DHT22;54079;44.540;18.784;2023-04-19T05:59:32;14.50;94.80
55777;DHT22;54079;44.540;18.784;2023-04-19T06:01:58;14.50;94.30
55777;DHT22;54079;44.540;18.784;2023-04-19T06:04:25;14.60;94.10
55777;DHT22;54079;44.540;18.784;2023-04-19T06:06:52;14.60;93.10
55777;DHT22;54079;44.540;18.784;2023-04-19T06:09:18;14.60;92.50
55777;DHT22;54079;44.540;18.784;2023-04-19T06:11:44;14.60;93.40
55777;DHT22;54079;44.540;18.784;2023-04-19T06:14:11;14.60;93.80
55777;DHT22;54079;44.540;18.784;2023-04-19T06:16:38;14.60;93.50
55777;DHT22;54079;44.540;18.784;2023-04-19T06:19:04;14.70;93.40
55777;DHT22;54079;44.540;18.784;2023-04-19T06:21:32;14.90;92.80
55777;DHT22;54079;44.540;18.784;2023-04-19T06:23:58;15.00;92.00
55777;DHT22;54079;44.540;18.784;2023-04-19T06:26:25;15.10;91.10
55777;DHT22;54079;44.540;18.784;2023-04-19T06:28:51;15.10;91.00
55777;DHT22;54079;44.540;18.784;2023-04-19T06:31:17;15.10;91.20
55777;DHT22;54079;44.540;18.784;2023-04-19T06:33:43;15.10;91.20
55777;DHT22;54079;44.540;18.784;2023-04-19T06:36:09;15.10;91.30
55777;DHT22;54079;44.540;18.784;2023-04-19T06:38:35;14.90;91.50
55777;DHT22;54079;44.540;18.784;2023-04-19T06:41:03;15.00;91.60
55777;DHT22;54079;44.540;18.784;2023-04-19T06:43:29;14.90;91.70
55777;DHT22;54079;44.540;18.784;2023-04-19T06:46:02;14.90;91.70
55777;DHT22;54079;44.540;18.784;2023-04-19T06:48:33;15.00;91.50
55777;DHT22;54079;44.540;18.784;2023-04-19T06:50:59;15.10;91.70
55777;DHT22;54079;44.540;18.784;2023-04-19T06:53:25;15.10;91.40
55777;DHT22;54079;44.540;18.784;2023-04-19T06:56:03;15.20;91.60
55777;DHT22;54079;44.540;18.784;2023-04-19T06:58:29;15.20;91.80
55777;DHT22;54079;44.540;18.784;2023-04-19T07:00:57;15.40;91.30
55777;DHT22;54079;44.540;18.784;2023-04-19T07:03:23;15.40;91.40
55777;DHT22;54079;44.540;18.784;2023-04-19T07:05:50;15.40;91.30
55777;DHT22;54079;44.540;18.784;2023-04-19T07:08:17;15.50;91.30
55777;DHT22;54079;44.540;18.784;2023-04-19T07:10:43;15.50;90.90
55777;DHT22;54079;44.540;18.784;2023-04-19T07:13:12;15.50;91.00
55777;DHT22;54079;44.540;18.784;2023-04-19T07:15:38;15.60;90.90
55777;DHT22;54079;44.540;18.784;2023-04-19T07:18:04;15.70;90.60
55777;DHT22;54079;44.540;18.784;2023-04-19T07:20:30;15.60;90.60
55777;DHT22;54079;44.540;18.784;2023-04-19T07:22:59;15.60;90.80
55777;DHT22;54079;44.540;18.784;2023-04-19T07:25:25;15.50;90.80
55777;DHT22;54079;44.540;18.784;2023-04-19T07:27:52;15.50;91.10
55777;DHT22;54079;44.540;18.784;2023-04-19T07:30:19;15.40;91.10
55777;DHT22;54079;44.540;18.784;2023-04-19T07:32:45;15.30;91.00
55777;DHT22;54079;44.540;18.784;2023-04-19T07:35:11;15.20;91.60
55777;DHT22;54079;44.540;18.784;2023-04-19T07:37:37;15.30;91.40
55777;DHT22;54079;44.540;18.784;2023-04-19T07:40:04;15.30;91.60
55777;DHT22;54079;44.540;18.784;2023-04-19T07:42:30;15.40;91.10
55777;DHT22;54079;44.540;18.784;2023-04-19T07:44:56;15.40;90.90
55777;DHT22;54079;44.540;18.784;2023-04-19T07:47:22;15.40;90.70
55777;DHT22;54079;44.540;18.784;2023-04-19T07:49:52;15.40;90.70
55777;DHT22;54079;44.540;18.784;2023-04-19T07:52:18;15.40;90.50
55777;DHT22;54079;44.540;18.784;2023-04-19T07:54:43;15.40;90.60
55777;DHT22;54079;44.540;18.784;2023-04-19T07:57:11;15.50;90.60
55777;DHT22;54079;44.540;18.784;2023-04-19T07:59:37;15.40;90.40
55777;DHT22;54079;44.540;18.784;2023-04-19T08:02:03;15.50;90.60
55777;DHT22;54079;44.540;18.784;2023-04-19T08:04:28;15.40;90.50
55777;DHT22;54079;44.540;18.784;2023-04-19T08:06:54;15.50;90.40
55777;DHT22;54079;44.540;18.784;2023-04-19T08:09:20;15.60;90.40
55777;DHT22;54079;44.540;18.784;2023-04-19T08:11:46;15.60;90.00
55777;DHT22;54079;44.540;18.784;2023-04-19T08:14:12;15.60;90.40
55777;DHT22;54079;44.540;18.784;2023-04-19T08:16:38;15.60;90.30
55777;DHT22;54079;44.540;18.784;2023-04-19T08:19:04;15.80;90.30
55777;DHT22;54079;44.540;18.784;2023-04-19T08:21:30;15.80;90.10
55777;DHT22;54079;44.540;18.784;2023-04-19T08:23:56;16.00;90.10
55777;DHT22;54079;44.540;18.784;2023-04-19T08:26:22;16.20;89.90
55777;DHT22;54079;44.540;18.784;2023-04-19T08:28:48;16.30;89.50
55777;DHT22;54079;44.540;18.784;2023-04-19T08:31:17;16.40;88.70
55777;DHT22;54079;44.540;18.784;2023-04-19T08:33:46;16.50;88.10
55777;DHT22;54079;44.540;18.784;2023-04-19T08:36:13;16.50;88.30
55777;DHT22;54079;44.540;18.784;2023-04-19T08:38:39;16.50;88.60
55777;DHT22;54079;44.540;18.784;2023-04-19T08:41:05;16.70;87.60
55777;DHT22;54079;44.540;18.784;2023-04-19T08:43:34;16.70;87.10
55777;DHT22;54079;44.540;18.784;2023-04-19T08:46:02;16.70;87.60
55777;DHT22;54079;44.540;18.784;2023-04-19T08:48:29;16.70;87.60
55777;DHT22;54079;44.540;18.784;2023-04-19T08:50:57;16.60;87.40
55777;DHT22;54079;44.540;18.784;2023-04-19T08:53:27;16.70;87.10
55777;DHT22;54079;44.540;18.784;2023-04-19T08:55:53;16.80;86.60
55777;DHT22;54079;44.540;18.784;2023-04-19T08:58:24;17.20;86.30
55777;DHT22;54079;44.540;18.784;2023-04-19T09:00:50;17.70;85.80
55777;DHT22;54079;44.540;18.784;2023-04-19T09:03:16;18.10;83.40
55777;DHT22;54079;44.540;18.784;2023-04-19T09:05:42;18.30;83.60
55777;DHT22;54079;44.540;18.784;2023-04-19T09:08:21;18.40;83.00
55777;DHT22;54079;44.540;18.784;2023-04-19T09:11:01;18.50;80.80
55777;DHT22;54079;44.540;18.784;2023-04-19T09:13:28;18.50;80.20
55777;DHT22;54079;44.540;18.784;2023-04-19T09:15:55;18.30;80.90
55777;DHT22;54079;44.540;18.784;2023-04-19T09:18:32;18.40;81.20
55777;DHT22;54079;44.540;18.784;2023-04-19T09:20:58;18.50;80.00
55777;DHT22;54079;44.540;18.784;2023-04-19T09:23:26;18.90;78.60
55777;DHT22;54079;44.540;18.784;2023-04-19T09:26:02;19.10;78.40
55777;DHT22;54079;44.540;18.784;2023-04-19T09:28:30;19.30;78.60
55777;DHT22;54079;44.540;18.784;2023-04-19T09:30:57;19.10;79.60
55777;DHT22;54079;44.540;18.784;2023-04-19T09:33:39;19.20;79.30
55777;DHT22;54079;44.540;18.784;2023-04-19T09:36:06;19.30;78.30
55777;DHT22;54079;44.540;18.784;2023-04-19T09:38:48;19.60;78.70
55777;DHT22;54079;44.540;18.784;2023-04-19T09:41:14;19.60;78.30
55777;DHT22;54079;44.540;18.784;2023-04-19T09:43:42;19.90;77.90
55777;DHT22;54079;44.540;18.784;2023-04-19T09:46:08;20.10;76.70
55777;DHT22;54079;44.540;18.784;2023-04-19T09:48:46;20.70;75.40
55777;DHT22;54079;44.540;18.784;2023-04-19T09:51:12;21.10;74.60
55777;DHT22;54079;44.540;18.784;2023-04-19T09:53:39;21.40;74.40
55777;DHT22;54079;44.540;18.784;2023-04-19T09:56:06;21.70;72.70
55777;DHT22;54079;44.540;18.784;2023-04-19T09:58:36;22.20;71.90
55777;DHT22;54079;44.540;18.784;2023-04-19T10:01:03;22.60;71.40
55777;DHT22;54079;44.540;18.784;2023-04-19T10:03:30;22.60;68.50
55777;DHT22;54079;44.540;18.784;2023-04-19T10:05:56;22.50;69.00
55777;DHT22;54079;44.540;18.784;2023-04-19T10:08:23;22.30;68.50
55777;DHT22;54079;44.540;18.784;2023-04-19T10:10:50;22.00;69.20
55777;DHT22;54079;44.540;18.784;2023-04-19T10:13:23;22.10;67.50
55777;DHT22;54079;44.540;18.784;2023-04-19T10:15:49;22.20;67.40
55777;DHT22;54079;44.540;18.784;2023-04-19T10:18:15;22.50;67.00
55777;DHT22;54079;44.540;18.784;2023-04-19T10:21:02;22.60;68.90
55777;DHT22;54079;44.540;18.784;2023-04-19T10:23:31;22.40;67.80
55777;DHT22;54079;44.540;18.784;2023-04-19T10:25:58;22.00;68.80
55777;DHT22;54079;44.540;18.784;2023-04-19T10:28:26;21.60;68.10
55777;DHT22;54079;44.540;18.784;2023-04-19T10:31:00;21.10;67.80
55777;DHT22;54079;44.540;18.784;2023-04-19T10:33:29;20.50;67.00
55777;DHT22;54079;44.540;18.784;2023-04-19T10:35:57;20.40;68.40
55777;DHT22;54079;44.540;18.784;2023-04-19T10:41:09;20.30;69.30
55777;DHT22;54079;44.540;18.784;2023-04-19T10:43:42;20.50;69.20
55777;DHT22;54079;44.540;18.784;2023-04-19T10:46:16;20.80;67.40
55777;DHT22;54079;44.540;18.784;2023-04-19T10:49:02;21.00;67.20
55777;DHT22;54079;44.540;18.784;2023-04-19T10:51:36;21.20;67.70
55777;DHT22;54079;44.540;18.784;2023-04-19T11:01:52;20.70;68.60
55777;DHT22;54079;44.540;18.784;2023-04-19T11:07:06;20.60;67.40
55777;DHT22;54079;44.540;18.784;2023-04-19T11:09:43;20.60;67.70
55777;DHT22;54079;44.540;18.784;2023-04-19T11:12:14;20.70;67.10
55777;DHT22;54079;44.540;18.784;2023-04-19T11:14:45;20.80;67.50
55777;DHT22;54079;44.540;18.784;2023-04-19T11:17:19;20.50;66.60
55777;DHT22;54079;44.540;18.784;2023-04-19T11:22:38;20.50;67.40
55777;DHT22;54079;44.540;18.784;2023-04-19T11:25:15;20.60;67.90
55777;DHT22;54079;44.540;18.784;2023-04-19T11:27:46;20.50;67.80
55777;DHT22;54079;44.540;18.784;2023-04-19T11:30:14;20.70;68.30
55777;DHT22;54079;44.540;18.784;2023-04-19T11:32:52;21.00;69.00
55777;DHT22;54079;44.540;18.784;2023-04-19T11:35:22;21.20;69.40
55777;DHT22;54079;44.540;18.784;2023-04-19T11:37:49;21.50;65.30
55777;DHT22;54079;44.540;18.784;2023-04-19T11:40:16;21.80;64.70
55777;DHT22;54079;44.540;18.784;2023-04-19T11:42:43;21.80;63.30
55777;DHT22;54079;44.540;18.784;2023-04-19T11:45:10;22.00;63.80
55777;DHT22;54079;44.540;18.784;2023-04-19T11:47:49;22.10;62.70
55777;DHT22;54079;44.540;18.784;2023-04-19T11:50:34;22.20;62.30
55777;DHT22;54079;44.540;18.784;2023-04-19T11:53:21;22.60;60.00
55777;DHT22;54079;44.540;18.784;2023-04-19T11:58:41;22.50;59.90
55777;DHT22;54079;44.540;18.784;2023-04-19T12:01:15;22.10;61.50
55777;DHT22;54079;44.540;18.784;2023-04-19T12:03:54;22.00;62.10
55777;DHT22;54079;44.540;18.784;2023-04-19T12:06:25;21.80;63.40
55777;DHT22;54079;44.540;18.784;2023-04-19T12:08:52;21.80;63.60
55777;DHT22;54079;44.540;18.784;2023-04-19T12:11:24;22.00;63.20
55777;DHT22;54079;44.540;18.784;2023-04-19T12:14:13;21.90;63.80
55777;DHT22;54079;44.540;18.784;2023-04-19T12:16:39;21.80;63.80
55777;DHT22;54079;44.540;18.784;2023-04-19T12:19:16;21.60;64.20
55777;DHT22;54079;44.540;18.784;2023-04-19T12:21:46;21.50;63.70
55777;DHT22;54079;44.540;18.784;2023-04-19T12:24:14;21.50;62.80
55777;DHT22;54079;44.540;18.784;2023-04-19T12:26:53;21.60;63.00
55777;DHT22;54079;44.540;18.784;2023-04-19T12:29:20;21.70;63.70
55777;DHT22;54079;44.540;18.784;2023-04-19T12:31:45;22.00;62.30
55777;DHT22;54079;44.540;18.784;2023-04-19T12:34:11;22.00;63.10
55777;DHT22;54079;44.540;18.784;2023-04-19T12:36:37;22.20;62.90
55777;DHT22;54079;44.540;18.784;2023-04-19T12:39:03;22.40;62.30
55777;DHT22;54079;44.540;18.784;2023-04-19T12:41:30;22.50;62.90
55777;DHT22;54079;44.540;18.784;2023-04-19T12:43:56;22.40;62.50
55777;DHT22;54079;44.540;18.784;2023-04-19T12:46:22;22.20;63.50
55777;DHT22;54079;44.540;18.784;2023-04-19T12:48:48;21.70;63.90
55777;DHT22;54079;44.540;18.784;2023-04-19T12:51:14;21.30;63.90
55777;DHT22;54079;44.540;18.784;2023-04-19T12:53:41;20.70;64.80
55777;DHT22;54079;44.540;18.784;2023-04-19T12:56:06;20.20;65.20
55777;DHT22;54079;44.540;18.784;2023-04-19T12:58:32;19.60;65.70
55777;DHT22;54079;44.540;18.784;2023-04-19T13:00:58;19.00;66.50
55777;DHT22;54079;44.540;18.784;2023-04-19T13:03:25;18.80;68.30
55777;DHT22;54079;44.540;18.784;2023-04-19T13:05:52;18.50;69.60
55777;DHT22;54079;44.540;18.784;2023-04-19T13:08:18;18.40;70.20
55777;DHT22;54079;44.540;18.784;2023-04-19T13:10:46;18.20;71.10
55777;DHT22;54079;44.540;18.784;2023-04-19T13:13:12;18.10;72.60
55777;DHT22;54079;44.540;18.784;2023-04-19T13:15:38;17.90;73.50
55777;DHT22;54079;44.540;18.784;2023-04-19T13:18:06;17.70;74.70
55777;DHT22;54079;44.540;18.784;2023-04-19T13:20:32;17.50;75.30
55777;DHT22;54079;44.540;18.784;2023-04-19T13:22:59;17.30;75.00
55777;DHT22;54079;44.540;18.784;2023-04-19T13:25:25;17.10;75.60
55777;DHT22;54079;44.540;18.784;2023-04-19T13:27:51;16.80;76.80
55777;DHT22;54079;44.540;18.784;2023-04-19T13:30:17;16.50;78.10
55777;DHT22;54079;44.540;18.784;2023-04-19T13:32:43;16.30;78.80
55777;DHT22;54079;44.540;18.784;2023-04-19T13:35:09;16.20;78.40
55777;DHT22;54079;44.540;18.784;2023-04-19T13:37:35;16.00;80.60
55777;DHT22;54079;44.540;18.784;2023-04-19T13:40:00;15.70;82.00
55777;DHT22;54079;44.540;18.784;2023-04-19T13:42:28;15.40;83.50
55777;DHT22;54079;44.540;18.784;2023-04-19T13:44:54;15.20;79.70
55777;DHT22;54079;44.540;18.784;2023-04-19T13:47:20;15.20;81.00
55777;DHT22;54079;44.540;18.784;2023-04-19T13:49:46;15.20;81.40
55777;DHT22;54079;44.540;18.784;2023-04-19T13:52:17;15.00;82.30
55777;DHT22;54079;44.540;18.784;2023-04-19T13:54:43;14.90;80.80
55777;DHT22;54079;44.540;18.784;2023-04-19T13:57:09;14.60;83.80
55777;DHT22;54079;44.540;18.784;2023-04-19T13:59:35;14.40;81.70
55777;DHT22;54079;44.540;18.784;2023-04-19T14:02:04;14.70;83.20
55777;DHT22;54079;44.540;18.784;2023-04-19T14:04:30;15.00;80.50
55777;DHT22;54079;44.540;18.784;2023-04-19T14:06:56;15.30;85.60
55777;DHT22;54079;44.540;18.784;2023-04-19T14:09:22;15.30;86.80
55777;DHT22;54079;44.540;18.784;2023-04-19T14:11:48;15.00;86.40
55777;DHT22;54079;44.540;18.784;2023-04-19T14:14:15;15.00;86.90
55777;DHT22;54079;44.540;18.784;2023-04-19T14:16:41;15.30;84.40
55777;DHT22;54079;44.540;18.784;2023-04-19T14:19:08;15.70;84.40
55777;DHT22;54079;44.540;18.784;2023-04-19T14:21:34;15.80;82.40
55777;DHT22;54079;44.540;18.784;2023-04-19T14:24:01;16.10;80.30
55777;DHT22;54079;44.540;18.784;2023-04-19T14:26:27;16.30;81.60
55777;DHT22;54079;44.540;18.784;2023-04-19T14:28:53;16.50;80.00
55777;DHT22;54079;44.540;18.784;2023-04-19T14:31:19;16.60;78.80
55777;DHT22;54079;44.540;18.784;2023-04-19T14:33:45;17.00;77.80
55777;DHT22;54079;44.540;18.784;2023-04-19T14:36:11;17.10;76.60
55777;DHT22;54079;44.540;18.784;2023-04-19T14:38:36;16.70;76.10
55777;DHT22;54079;44.540;18.784;2023-04-19T14:41:02;16.80;77.10
55777;DHT22;54079;44.540;18.784;2023-04-19T14:43:29;16.50;77.60
55777;DHT22;54079;44.540;18.784;2023-04-19T14:45:55;16.40;80.30
55777;DHT22;54079;44.540;18.784;2023-04-19T14:48:21;16.50;82.10
55777;DHT22;54079;44.540;18.784;2023-04-19T14:50:47;16.60;82.10
55777;DHT22;54079;44.540;18.784;2023-04-19T14:53:13;16.50;80.40
55777;DHT22;54079;44.540;18.784;2023-04-19T14:55:40;16.30;80.20
55777;DHT22;54079;44.540;18.784;2023-04-19T14:58:05;16.50;82.50
55777;DHT22;54079;44.540;18.784;2023-04-19T15:00:32;16.80;82.10
55777;DHT22;54079;44.540;18.784;2023-04-19T15:02:58;16.90;79.00
55777;DHT22;54079;44.540;18.784;2023-04-19T15:05:25;17.00;82.00
55777;DHT22;54079;44.540;18.784;2023-04-19T15:07:54;17.10;81.60
55777;DHT22;54079;44.540;18.784;2023-04-19T15:10:20;17.10;80.00
55777;DHT22;54079;44.540;18.784;2023-04-19T15:12:46;17.00;78.50
55777;DHT22;54079;44.540;18.784;2023-04-19T15:15:11;17.10;80.00
55777;DHT22;54079;44.540;18.784;2023-04-19T15:17:37;16.90;79.40
55777;DHT22;54079;44.540;18.784;2023-04-19T15:20:04;17.00;79.60
55777;DHT22;54079;44.540;18.784;2023-04-19T15:22:32;17.00;75.50
55777;DHT22;54079;44.540;18.784;2023-04-19T15:25:00;17.00;77.20
55777;DHT22;54079;44.540;18.784;2023-04-19T15:27:26;17.20;78.40
55777;DHT22;54079;44.540;18.784;2023-04-19T15:29:53;17.30;78.00
55777;DHT22;54079;44.540;18.784;2023-04-19T15:32:19;17.40;78.90
55777;DHT22;54079;44.540;18.784;2023-04-19T15:34:45;17.40;76.10